sensor_id;sensor_type;location;lat;lon;timestamp;temperature;humidity
35491;DHT22;21605;52.068;20.806;2023-11-21T00:00:49;2.10;99.90
35491;DHT22;21605;52.068;20.806;2023-11-21T00:03:14;2.10;99.90
35491;DHT22;21605;52.068;20.806;2023-11-21T00:05:42;2.10;99.90
35491;DHT22;21605;52.068;20.806;2023-11-21T00:08:08;2.10;99.90
35491;DHT22;21605;52.068;20.806;2023-11-21T00:10:34;2.10;99.90
35491;DHT22;21605;52.068;20.806;2023-11-21T00:13:00;2.10;99.90
35491;DHT22;21605;52.068;20.806;2023-11-21T00:15:27;2.10;99.90
35491;DHT22;21605;52.068;20.806;2023-11-21T00:17:53;2.10;99.90
35491;DHT22;21605;52.068;20.806;2023-11-21T00:20:18;2.10;99.90
35491;DHT22;21605;52.068;20.806;2023-11-21T00:22:49;2.00;99.90
35491;DHT22;21605;52.068;20.806;2023-11-21T00:25:14;2.00;99.90
35491;DHT22;21605;52.068;20.806;2023-11-21T00:27:41;2.10;99.90
35491;DHT22;21605;52.068;20.806;2023-11-21T00:30:07;2.10;99.90
35491;DHT22;21605;52.068;20.806;2023-11-21T00:32:36;2.00;99.90
35491;DHT22;21605;52.068;20.806;2023-11-21T00:35:02;2.00;99.90
35491;DHT22;21605;52.068;20.806;2023-11-21T00:37:27;2.10;99.90
35491;DHT22;21605;52.068;20.806;2023-11-21T00:39:53;2.00;99.90
35491;DHT22;21605;52.068;20.806;2023-11-21T00:42:18;2.00;99.90
35491;DHT22;21605;52.068;20.806;2023-11-21T00:44:44;2.10;99.90
35491;DHT22;21605;52.068;20.806;2023-11-21T00:47:10;2.00;99.90
35491;DHT22;21605;52.068;20.806;2023-11-21T00:49:44;2.00;99.90
35491;DHT22;21605;52.068;20.806;2023-11-21T00:52:10;2.10;99.90
35491;DHT22;21605;52.068;20.806;2023-11-21T00:54:42;2.10;99.90
35491;DHT22;21605;52.068;20.806;2023-11-21T00:57:08;2.10;99.90
35491;DHT22;21605;52.068;20.806;2023-11-21T00:59:42;2.10;99.90
35491;DHT22;21605;52.068;20.806;2023-11-21T01:02:08;2.10;99.90
35491;DHT22;21605;52.068;20.806;2023-11-21T01:04:42;2.10;99.90
35491;DHT22;21605;52.068;20.806;2023-11-21T01:07:07;2.10;99.90
35491;DHT22;21605;52.068;20.806;2023-11-21T01:09:42;2.10;99.90
35491;DHT22;21605;52.068;20.806;2023-11-21T01:12:09;2.00;99.90
35491;DHT22;21605;52.068;20.806;2023-11-21T01:14:44;2.00;99.90
35491;DHT22;21605;52.068;20.806;2023-11-21T01:17:10;2.10;99.90
35491;DHT22;21605;52.068;20.806;2023-11-21T01:19:42;2.00;99.90
35491;DHT22;21605;52.068;20.806;2023-11-21T01:22:08;2.00;99.90
35491;DHT22;21605;52.068;20.806;2023-11-21T01:24:43;1.90;99.90
35491;DHT22;21605;52.068;20.806;2023-11-21T01:27:09;1.90;99.90
35491;DHT22;21605;52.068;20.806;2023-11-21T01:29:44;1.90;99.90
35491;DHT22;21605;52.068;20.806;2023-11-21T01:32:10;1.90;99.90
35491;DHT22;21605;52.068;20.806;2023-11-21T01:34:45;1.90;99.90
35491;DHT22;21605;52.068;20.806;2023-11-21T01:37:11;2.00;99.90
35491;DHT22;21605;52.068;20.806;2023-11-21T01:39:46;1.90;99.90
35491;DHT22;21605;52.068;20.806;2023-11-21T01:42:12;2.00;99.90
35491;DHT22;21605;52.068;20.806;2023-11-21T01:44:38;2.00;99.90
35491;DHT22;21605;52.068;20.806;2023-11-21T01:47:05;1.90;99.90
35491;DHT22;21605;52.068;20.806;2023-11-21T01:49:45;1.90;99.90
35491;DHT22;21605;52.068;20.806;2023-11-21T01:52:11;1.90;99.90
35491;DHT22;21605;52.068;20.806;2023-11-21T01:54:46;1.90;99.90
35491;DHT22;21605;52.068;20.806;2023-11-21T01:57:13;2.00;99.90
35491;DHT22;21605;52.068;20.806;2023-11-21T01:59:51;2.00;99.90
35491;DHT22;21605;52.068;20.806;2023-11-21T02:02:18;2.00;99.90
35491;DHT22;21605;52.068;20.806;2023-11-21T02:04:43;2.00;99.90
35491;DHT22;21605;52.068;20.806;2023-11-21T02:07:09;2.00;99.90
35491;DHT22;21605;52.068;20.806;2023-11-21T02:09:44;1.90;99.90
35491;DHT22;21605;52.068;20.806;2023-11-21T02:12:10;1.90;99.90
35491;DHT22;21605;52.068;20.806;2023-11-21T02:14:45;2.00;99.90
35491;DHT22;21605;52.068;20.806;2023-11-21T02:17:11;1.90;99.90
35491;DHT22;21605;52.068;20.806;2023-11-21T02:19:47;2.00;99.90
35491;DHT22;21605;52.068;20.806;2023-11-21T02:22:17;1.90;99.90
35491;DHT22;21605;52.068;20.806;2023-11-21T02:24:52;1.90;99.90
35491;DHT22;21605;52.068;20.806;2023-11-21T02:27:18;1.90;99.90
35491;DHT22;21605;52.068;20.806;2023-11-21T02:29:50;1.90;99.90
35491;DHT22;21605;52.068;20.806;2023-11-21T02:32:16;1.90;99.90
35491;DHT22;21605;52.068;20.806;2023-11-21T02:34:45;1.90;99.90
35491;DHT22;21605;52.068;20.806;2023-11-21T02:37:11;1.90;99.90
35491;DHT22;21605;52.068;20.806;2023-11-21T02:39:46;1.80;99.90
35491;DHT22;21605;52.068;20.806;2023-11-21T02:42:11;1.80;99.90
35491;DHT22;21605;52.068;20.806;2023-11-21T02:44:46;1.80;99.90
35491;DHT22;21605;52.068;20.806;2023-11-21T02:47:12;1.90;99.90
35491;DHT22;21605;52.068;20.806;2023-11-21T02:49:46;1.90;99.90
35491;DHT22;21605;52.068;20.806;2023-11-21T02:52:12;1.80;99.90
35491;DHT22;21605;52.068;20.806;2023-11-21T02:54:47;1.80;99.90
35491;DHT22;21605;52.068;20.806;2023-11-21T02:57:12;1.80;99.90
35491;DHT22;21605;52.068;20.806;2023-11-21T02:59:48;1.80;99.90
35491;DHT22;21605;52.068;20.806;2023-11-21T03:02:13;1.80;99.90
35491;DHT22;21605;52.068;20.806;2023-11-21T03:04:48;1.80;99.90
35491;DHT22;21605;52.068;20.806;2023-11-21T03:07:15;1.80;99.90
35491;DHT22;21605;52.068;20.806;2023-11-21T03:09:47;1.80;99.90
35491;DHT22;21605;52.068;20.806;2023-11-21T03:12:13;1.80;99.90
35491;DHT22;21605;52.068;20.806;2023-11-21T03:14:51;1.80;99.90
35491;DHT22;21605;52.068;20.806;2023-11-21T03:17:16;1.70;99.90
35491;DHT22;21605;52.068;20.806;2023-11-21T03:19:47;1.80;99.90
35491;DHT22;21605;52.068;20.806;2023-11-21T03:22:13;1.70;99.90
35491;DHT22;21605;52.068;20.806;2023-11-21T03:24:53;1.70;99.90
35491;DHT22;21605;52.068;20.806;2023-11-21T03:27:19;1.70;99.90
35491;DHT22;21605;52.068;20.806;2023-11-21T03:29:51;1.70;99.90
35491;DHT22;21605;52.068;20.806;2023-11-21T03:32:16;1.70;99.90
35491;DHT22;21605;52.068;20.806;2023-11-21T03:34:58;1.70;99.90
35491;DHT22;21605;52.068;20.806;2023-11-21T03:37:24;1.70;99.90
35491;DHT22;21605;52.068;20.806;2023-11-21T03:39:50;1.70;99.90
35491;DHT22;21605;52.068;20.806;2023-11-21T03:42:16;1.70;99.90
35491;DHT22;21605;52.068;20.806;2023-11-21T03:44:50;1.70;99.90
35491;DHT22;21605;52.068;20.806;2023-11-21T03:47:16;1.70;99.90
35491;DHT22;21605;52.068;20.806;2023-11-21T03:49:48;1.70;99.90
35491;DHT22;21605;52.068;20.806;2023-11-21T03:52:13;1.60;99.90
35491;DHT22;21605;52.068;20.806;2023-11-21T03:54:39;1.60;99.90
35491;DHT22;21605;52.068;20.806;2023-11-21T03:57:21;1.60;99.90
35491;DHT22;21605;52.068;20.806;2023-11-21T03:59:56;1.60;99.90
35491;DHT22;21605;52.068;20.806;2023-11-21T04:02:21;1.60;99.90
35491;DHT22;21605;52.068;20.806;2023-11-21T04:04:56;1.60;99.90
35491;DHT22;21605;52.068;20.806;2023-11-21T04:07:22;1.60;99.90
35491;DHT22;21605;52.068;20.806;2023-11-21T04:09:47;1.50;99.90
35491;DHT22;21605;52.068;20.806;2023-11-21T04:12:13;1.50;99.90
35491;DHT22;21605;52.068;20.806;2023-11-21T04:14:39;1.50;99.90
35491;DHT22;21605;52.068;20.806;2023-11-21T04:17:04;1.50;99.90
35491;DHT22;21605;52.068;20.806;2023-11-21T04:19:30;1.50;99.90
35491;DHT22;21605;52.068;20.806;2023-11-21T04:21:56;1.50;99.90
35491;DHT22;21605;52.068;20.806;2023-11-21T04:24:21;1.50;99.90
35491;DHT22;21605;52.068;20.806;2023-11-21T04:26:52;1.50;99.90
35491;DHT22;21605;52.068;20.806;2023-11-21T04:29:18;1.50;99.90
35491;DHT22;21605;52.068;20.806;2023-11-21T04:31:53;1.50;99.90
35491;DHT22;21605;52.068;20.806;2023-11-21T04:34:19;1.40;99.90
35491;DHT22;21605;52.068;20.806;2023-11-21T04:36:53;1.50;99.90
35491;DHT22;21605;52.068;20.806;2023-11-21T04:39:19;1.50;99.90
35491;DHT22;21605;52.068;20.806;2023-11-21T04:41:48;1.40;99.90
35491;DHT22;21605;52.068;20.806;2023-11-21T04:44:14;1.50;99.90
35491;DHT22;21605;52.068;20.806;2023-11-21T04:46:41;1.50;99.90
35491;DHT22;21605;52.068;20.806;2023-11-21T04:49:07;1.50;99.90
35491;DHT22;21605;52.068;20.806;2023-11-21T04:51:33;1.40;99.90
35491;DHT22;21605;52.068;20.806;2023-11-21T04:53:58;1.40;99.90
35491;DHT22;21605;52.068;20.806;2023-11-21T04:56:24;1.50;99.90
35491;DHT22;21605;52.068;20.806;2023-11-21T04:58:53;1.50;99.90
35491;DHT22;21605;52.068;20.806;2023-11-21T05:01:19;1.40;99.90
35491;DHT22;21605;52.068;20.806;2023-11-21T05:03:53;1.40;99.90
35491;DHT22;21605;52.068;20.806;2023-11-21T05:06:19;1.40;99.90
35491;DHT22;21605;52.068;20.806;2023-11-21T05:08:51;1.40;99.90
35491;DHT22;21605;52.068;20.806;2023-11-21T05:11:27;1.30;99.90
35491;DHT22;21605;52.068;20.806;2023-11-21T05:14:01;1.30;99.90
35491;DHT22;21605;52.068;20.806;2023-11-21T05:16:28;1.40;99.90
35491;DHT22;21605;52.068;20.806;2023-11-21T05:18:54;1.40;99.90
35491;DHT22;21605;52.068;20.806;2023-11-21T05:21:28;1.30;99.90
35491;DHT22;21605;52.068;20.806;2023-11-21T05:23:55;1.30;99.90
35491;DHT22;21605;52.068;20.806;2023-11-21T05:26:21;1.40;99.90
35491;DHT22;21605;52.068;20.806;2023-11-21T05:28:56;1.40;99.90
35491;DHT22;21605;52.068;20.806;2023-11-21T05:31:21;1.40;99.90
35491;DHT22;21605;52.068;20.806;2023-11-21T05:33:52;1.40;99.90
35491;DHT22;21605;52.068;20.806;2023-11-21T05:36:18;1.30;99.90
35491;DHT22;21605;52.068;20.806;2023-11-21T05:38:44;1.30;99.90
35491;DHT22;21605;52.068;20.806;2023-11-21T05:41:18;1.30;99.90
35491;DHT22;21605;52.068;20.806;2023-11-21T05:43:44;1.30;99.90
35491;DHT22;21605;52.068;20.806;2023-11-21T05:46:09;1.20;99.90
35491;DHT22;21605;52.068;20.806;2023-11-21T05:48:35;1.20;99.90
35491;DHT22;21605;52.068;20.806;2023-11-21T05:51:04;1.20;99.90
35491;DHT22;21605;52.068;20.806;2023-11-21T05:53:30;0.50;99.90
35491;DHT22;21605;52.068;20.806;2023-11-21T05:55:57;1.20;99.90
35491;DHT22;21605;52.068;20.806;2023-11-21T05:58:22;1.20;99.90
35491;DHT22;21605;52.068;20.806;2023-11-21T06:00:49;1.20;99.90
35491;DHT22;21605;52.068;20.806;2023-11-21T06:03:15;1.20;99.90
35491;DHT22;21605;52.068;20.806;2023-11-21T06:05:42;1.20;99.90
35491;DHT22;21605;52.068;20.806;2023-11-21T06:08:08;1.20;99.90
35491;DHT22;21605;52.068;20.806;2023-11-21T06:10:34;1.20;99.90
35491;DHT22;21605;52.068;20.806;2023-11-21T06:13:00;2.90;99.90
35491;DHT22;21605;52.068;20.806;2023-11-21T06:15:25;1.20;99.90
35491;DHT22;21605;52.068;20.806;2023-11-21T06:18:00;1.10;99.90
35491;DHT22;21605;52.068;20.806;2023-11-21T06:20:25;1.10;99.90
35491;DHT22;21605;52.068;20.806;2023-11-21T06:22:51;1.20;99.90
35491;DHT22;21605;52.068;20.806;2023-11-21T06:25:17;1.20;99.90
35491;DHT22;21605;52.068;20.806;2023-11-21T06:28:02;1.20;99.90
35491;DHT22;21605;52.068;20.806;2023-11-21T06:30:28;1.20;99.90
35491;DHT22;21605;52.068;20.806;2023-11-21T06:32:54;1.20;99.90
35491;DHT22;21605;52.068;20.806;2023-11-21T06:35:21;1.20;99.90
35491;DHT22;21605;52.068;20.806;2023-11-21T06:37:56;1.20;99.90
35491;DHT22;21605;52.068;20.806;2023-11-21T06:40:21;1.20;99.90
35491;DHT22;21605;52.068;20.806;2023-11-21T06:43:02;1.20;99.90
35491;DHT22;21605;52.068;20.806;2023-11-21T06:45:28;1.20;99.90
35491;DHT22;21605;52.068;20.806;2023-11-21T06:47:57;1.20;99.90
35491;DHT22;21605;52.068;20.806;2023-11-21T06:50:22;1.20;99.90
35491;DHT22;21605;52.068;20.806;2023-11-21T06:52:57;1.20;99.90
35491;DHT22;21605;52.068;20.806;2023-11-21T06:55:23;1.10;99.90
35491;DHT22;21605;52.068;20.806;2023-11-21T06:58:00;1.20;99.90
35491;DHT22;21605;52.068;20.806;2023-11-21T07:00:26;1.10;99.90
35491;DHT22;21605;52.068;20.806;2023-11-21T07:02:57;1.10;99.90
35491;DHT22;21605;52.068;20.806;2023-11-21T07:05:23;1.10;99.90
35491;DHT22;21605;52.068;20.806;2023-11-21T07:07:58;1.10;99.90
35491;DHT22;21605;52.068;20.806;2023-11-21T07:10:29;1.10;99.90
35491;DHT22;21605;52.068;20.806;2023-11-21T07:12:58;1.10;99.90
35491;DHT22;21605;52.068;20.806;2023-11-21T07:15:24;1.10;99.90
35491;DHT22;21605;52.068;20.806;2023-11-21T07:18:03;1.10;99.90
35491;DHT22;21605;52.068;20.806;2023-11-21T07:20:29;1.10;99.90
35491;DHT22;21605;52.068;20.806;2023-11-21T07:22:58;1.10;99.90
35491;DHT22;21605;52.068;20.806;2023-11-21T07:25:25;1.10;99.90
35491;DHT22;21605;52.068;20.806;2023-11-21T07:28:00;1.10;99.90
35491;DHT22;21605;52.068;20.806;2023-11-21T07:30:26;1.10;99.90
35491;DHT22;21605;52.068;20.806;2023-11-21T07:32:58;1.10;99.90
35491;DHT22;21605;52.068;20.806;2023-11-21T07:35:24;1.10;99.90
35491;DHT22;21605;52.068;20.806;2023-11-21T07:37:54;1.10;99.90
35491;DHT22;21605;52.068;20.806;2023-11-21T07:40:20;1.10;99.90
35491;DHT22;21605;52.068;20.806;2023-11-21T07:42:47;1.20;99.90
35491;DHT22;21605;52.068;20.806;2023-11-21T07:45:14;1.20;99.90
35491;DHT22;21605;52.068;20.806;2023-11-21T07:47:40;1.20;99.90
35491;DHT22;21605;52.068;20.806;2023-11-21T07:50:06;1.20;99.90
35491;DHT22;21605;52.068;20.806;2023-11-21T07:52:32;1.20;99.90
35491;DHT22;21605;52.068;20.806;2023-11-21T07:54:59;1.10;99.90
35491;DHT22;21605;52.068;20.806;2023-11-21T07:57:24;1.20;99.90
35491;DHT22;21605;52.068;20.806;2023-11-21T07:59:50;1.10;99.90
35491;DHT22;21605;52.068;20.806;2023-11-21T08:02:15;1.20;99.90
35491;DHT22;21605;52.068;20.806;2023-11-21T08:04:43;1.20;99.90
35491;DHT22;21605;52.068;20.806;2023-11-21T08:07:08;1.20;99.90
35491;DHT22;21605;52.068;20.806;2023-11-21T08:09:35;1.20;99.90
35491;DHT22;21605;52.068;20.806;2023-11-21T08:12:06;1.20;99.90
35491;DHT22;21605;52.068;20.806;2023-11-21T08:14:33;1.20;99.90
35491;DHT22;21605;52.068;20.806;2023-11-21T08:17:01;1.10;99.90
35491;DHT22;21605;52.068;20.806;2023-11-21T08:19:27;1.10;99.90
35491;DHT22;21605;52.068;20.806;2023-11-21T08:22:01;1.10;99.90
35491;DHT22;21605;52.068;20.806;2023-11-21T08:24:27;1.10;99.90
35491;DHT22;21605;52.068;20.806;2023-11-21T08:27:02;1.20;99.90
35491;DHT22;21605;52.068;20.806;2023-11-21T08:29:29;1.20;99.90
35491;DHT22;21605;52.068;20.806;2023-11-21T08:32:02;1.20;99.90
35491;DHT22;21605;52.068;20.806;2023-11-21T08:34:28;1.20;99.90
35491;DHT22;21605;52.068;20.806;2023-11-21T08:37:03;1.20;99.90
35491;DHT22;21605;52.068;20.806;2023-11-21T08:39:28;1.20;99.90
35491;DHT22;21605;52.068;20.806;2023-11-21T08:42:05;1.20;99.90
35491;DHT22;21605;52.068;20.806;2023-11-21T08:44:30;1.20;99.90
35491;DHT22;21605;52.068;20.806;2023-11-21T08:47:09;1.20;99.90
35491;DHT22;21605;52.068;20.806;2023-11-21T08:49:34;1.20;99.90
35491;DHT22;21605;52.068;20.806;2023-11-21T08:52:00;1.20;99.90
35491;DHT22;21605;52.068;20.806;2023-11-21T08:54:26;1.20;99.90
35491;DHT22;21605;52.068;20.806;2023-11-21T08:56:52;1.20;99.90
35491;DHT22;21605;52.068;20.806;2023-11-21T08:59:26;1.30;99.90
35491;DHT22;21605;52.068;20.806;2023-11-21T09:01:52;0.10;99.90
35491;DHT22;21605;52.068;20.806;2023-11-21T09:04:18;1.20;99.90
35491;DHT22;21605;52.068;20.806;2023-11-21T09:06:43;1.20;99.90
35491;DHT22;21605;52.068;20.806;2023-11-21T09:09:09;1.20;99.90
35491;DHT22;21605;52.068;20.806;2023-11-21T09:11:36;1.20;99.90
35491;DHT22;21605;52.068;20.806;2023-11-21T09:14:02;1.20;99.90
35491;DHT22;21605;52.068;20.806;2023-11-21T09:16:31;1.20;99.90
35491;DHT22;21605;52.068;20.806;2023-11-21T09:18:57;1.30;99.90
35491;DHT22;21605;52.068;20.806;2023-11-21T09:21:22;1.20;99.90
35491;DHT22;21605;52.068;20.806;2023-11-21T09:23:49;1.20;99.90
35491;DHT22;21605;52.068;20.806;2023-11-21T09:26:15;1.30;99.90
35491;DHT22;21605;52.068;20.806;2023-11-21T09:28:43;1.30;99.90
35491;DHT22;21605;52.068;20.806;2023-11-21T09:31:12;1.30;99.90
35491;DHT22;21605;52.068;20.806;2023-11-21T09:33:38;1.20;99.90
35491;DHT22;21605;52.068;20.806;2023-11-21T09:36:05;1.20;99.90
35491;DHT22;21605;52.068;20.806;2023-11-21T09:38:31;1.20;99.90
35491;DHT22;21605;52.068;20.806;2023-11-21T09:41:11;1.20;99.90
35491;DHT22;21605;52.068;20.806;2023-11-21T09:43:43;1.20;99.90
35491;DHT22;21605;52.068;20.806;2023-11-21T09:46:11;1.20;99.90
35491;DHT22;21605;52.068;20.806;2023-11-21T09:48:42;1.20;99.90
35491;DHT22;21605;52.068;20.806;2023-11-21T09:51:15;1.20;99.90
35491;DHT22;21605;52.068;20.806;2023-11-21T09:53:43;1.20;99.90
35491;DHT22;21605;52.068;20.806;2023-11-21T09:56:09;1.20;99.90
35491;DHT22;21605;52.068;20.806;2023-11-21T09:58:36;1.20;99.90
35491;DHT22;21605;52.068;20.806;2023-11-21T10:01:11;1.20;99.90
35491;DHT22;21605;52.068;20.806;2023-11-21T10:03:39;1.20;99.90
35491;DHT22;21605;52.068;20.806;2023-11-21T10:06:13;1.20;99.90
35491;DHT22;21605;52.068;20.806;2023-11-21T10:08:43;1.30;99.90
35491;DHT22;21605;52.068;20.806;2023-11-21T10:11:11;1.30;99.90
35491;DHT22;21605;52.068;20.806;2023-11-21T10:13:38;1.30;99.90
35491;DHT22;21605;52.068;20.806;2023-11-21T10:16:07;1.30;99.90
35491;DHT22;21605;52.068;20.806;2023-11-21T10:18:37;1.20;99.90
35491;DHT22;21605;52.068;20.806;2023-11-21T10:21:10;1.20;99.90
35491;DHT22;21605;52.068;20.806;2023-11-21T10:23:36;1.30;99.90
35491;DHT22;21605;52.068;20.806;2023-11-21T10:26:09;1.30;99.90
35491;DHT22;21605;52.068;20.806;2023-11-21T10:28:39;1.30;99.90
35491;DHT22;21605;52.068;20.806;2023-11-21T10:31:06;1.30;99.90
35491;DHT22;21605;52.068;20.806;2023-11-21T10:33:33;1.30;99.90
35491;DHT22;21605;52.068;20.806;2023-11-21T10:36:07;1.40;99.90
35491;DHT22;21605;52.068;20.806;2023-11-21T10:38:42;1.30;99.90
35491;DHT22;21605;52.068;20.806;2023-11-21T10:41:13;1.40;99.90
35491;DHT22;21605;52.068;20.806;2023-11-21T10:43:40;1.40;99.90
35491;DHT22;21605;52.068;20.806;2023-11-21T10:46:16;1.40;99.90
35491;DHT22;21605;52.068;20.806;2023-11-21T10:48:42;1.40;99.90
35491;DHT22;21605;52.068;20.806;2023-11-21T10:51:08;1.40;99.90
35491;DHT22;21605;52.068;20.806;2023-11-21T10:53:41;1.40;99.90
35491;DHT22;21605;52.068;20.806;2023-11-21T10:56:08;1.50;99.90
35491;DHT22;21605;52.068;20.806;2023-11-21T10:58:37;1.50;99.90
35491;DHT22;21605;52.068;20.806;2023-11-21T11:01:09;1.50;99.90
35491;DHT22;21605;52.068;20.806;2023-11-21T11:03:39;1.60;99.90
35491;DHT22;21605;52.068;20.806;2023-11-21T11:06:16;1.50;99.90
35491;DHT22;21605;52.068;20.806;2023-11-21T11:08:42;1.50;99.90
35491;DHT22;21605;52.068;20.806;2023-11-21T11:11:10;1.60;99.90
35491;DHT22;21605;52.068;20.806;2023-11-21T11:13:39;1.50;99.90
35491;DHT22;21605;52.068;20.806;2023-11-21T11:16:12;1.50;99.90
35491;DHT22;21605;52.068;20.806;2023-11-21T11:18:42;1.60;99.90
35491;DHT22;21605;52.068;20.806;2023-11-21T11:38:21;1.60;99.90
35491;DHT22;21605;52.068;20.806;2023-11-21T11:40:52;1.60;99.90
35491;DHT22;21605;52.068;20.806;2023-11-21T11:43:27;1.60;99.90
35491;DHT22;21605;52.068;20.806;2023-11-21T11:45:56;1.60;99.90
35491;DHT22;21605;52.068;20.806;2023-11-21T11:48:22;1.60;99.90
35491;DHT22;21605;52.068;20.806;2023-11-21T11:51:13;1.60;99.90
35491;DHT22;21605;52.068;20.806;2023-11-21T11:53:44;1.60;99.90
35491;DHT22;21605;52.068;20.806;2023-11-21T11:56:29;1.60;99.90
35491;DHT22;21605;52.068;20.806;2023-11-21T11:59:09;1.60;99.90
35491;DHT22;21605;52.068;20.806;2023-11-21T12:01:35;1.60;99.90
35491;DHT22;21605;52.068;20.806;2023-11-21T12:07:13;1.70;99.90
35491;DHT22;21605;52.068;20.806;2023-11-21T12:09:39;1.60;99.90
35491;DHT22;21605;52.068;20.806;2023-11-21T12:12:15;1.60;99.90
35491;DHT22;21605;52.068;20.806;2023-11-21T12:14:42;1.60;99.90
35491;DHT22;21605;52.068;20.806;2023-11-21T12:17:17;1.60;99.90
35491;DHT22;21605;52.068;20.806;2023-11-21T12:19:42;1.60;99.90
35491;DHT22;21605;52.068;20.806;2023-11-21T12:22:14;1.60;99.90
35491;DHT22;21605;52.068;20.806;2023-11-21T12:24:40;1.60;99.90
35491;DHT22;21605;52.068;20.806;2023-11-21T12:27:11;1.60;99.90
35491;DHT22;21605;52.068;20.806;2023-11-21T12:29:40;1.60;99.90
35491;DHT22;21605;52.068;20.806;2023-11-21T12:32:18;1.50;99.90
35491;DHT22;21605;52.068;20.806;2023-11-21T12:34:44;1.60;99.90
35491;DHT22;21605;52.068;20.806;2023-11-21T12:37:15;1.50;99.90
35491;DHT22;21605;52.068;20.806;2023-11-21T12:39:42;1.50;99.90
35491;DHT22;21605;52.068;20.806;2023-11-21T12:42:13;1.50;99.90
35491;DHT22;21605;52.068;20.806;2023-11-21T12:44:39;1.50;99.90
35491;DHT22;21605;52.068;20.806;2023-11-21T12:47:17;1.50;99.90
35491;DHT22;21605;52.068;20.806;2023-11-21T12:49:43;1.40;99.90
35491;DHT22;21605;52.068;20.806;2023-11-21T12:52:22;1.40;99.90
35491;DHT22;21605;52.068;20.806;2023-11-21T12:54:47;1.40;99.90
35491;DHT22;21605;52.068;20.806;2023-11-21T12:57:19;1.40;99.90
35491;DHT22;21605;52.068;20.806;2023-11-21T12:59:45;1.30;99.90
35491;DHT22;21605;52.068;20.806;2023-11-21T13:02:20;1.40;99.90
35491;DHT22;21605;52.068;20.806;2023-11-21T13:04:52;1.30;99.90
35491;DHT22;21605;52.068;20.806;2023-11-21T13:07:18;1.30;99.90
35491;DHT22;21605;52.068;20.806;2023-11-21T13:09:46;1.30;99.90
35491;DHT22;21605;52.068;20.806;2023-11-21T13:12:24;1.30;99.90
35491;DHT22;21605;52.068;20.806;2023-11-21T13:14:50;1.40;99.90
35491;DHT22;21605;52.068;20.806;2023-11-21T13:17:15;1.30;99.90
35491;DHT22;21605;52.068;20.806;2023-11-21T13:19:41;1.30;99.90
35491;DHT22;21605;52.068;20.806;2023-11-21T13:22:13;1.30;99.90
35491;DHT22;21605;52.068;20.806;2023-11-21T13:24:39;1.30;99.90
35491;DHT22;21605;52.068;20.806;2023-11-21T13:27:13;1.30;99.90
35491;DHT22;21605;52.068;20.806;2023-11-21T13:29:40;1.30;99.90
35491;DHT22;21605;52.068;20.806;2023-11-21T13:32:15;1.30;99.90
35491;DHT22;21605;52.068;20.806;2023-11-21T13:34:42;1.30;99.90
35491;DHT22;21605;52.068;20.806;2023-11-21T13:37:15;1.30;99.90
35491;DHT22;21605;52.068;20.806;2023-11-21T13:39:41;1.30;99.90
35491;DHT22;21605;52.068;20.806;2023-11-21T13:42:15;1.30;99.90
35491;DHT22;21605;52.068;20.806;2023-11-21T13:44:42;1.30;99.90
35491;DHT22;21605;52.068;20.806;2023-11-21T13:47:21;1.30;99.90
35491;DHT22;21605;52.068;20.806;2023-11-21T13:49:50;1.30;99.90
35491;DHT22;21605;52.068;20.806;2023-11-21T13:52:15;1.30;99.90
35491;DHT22;21605;52.068;20.806;2023-11-21T13:54:42;1.30;99.90
35491;DHT22;21605;52.068;20.806;2023-11-21T13:57:17;1.20;99.90
35491;DHT22;21605;52.068;20.806;2023-11-21T13:59:43;1.20;99.90
35491;DHT22;21605;52.068;20.806;2023-11-21T14:02:15;1.20;99.90
35491;DHT22;21605;52.068;20.806;2023-11-21T14:04:44;1.30;99.90
35491;DHT22;21605;52.068;20.806;2023-11-21T14:07:20;1.20;99.90
35491;DHT22;21605;52.068;20.806;2023-11-21T14:10:01;1.20;99.90
35491;DHT22;21605;52.068;20.806;2023-11-21T14:12:27;1.20;99.90
35491;DHT22;21605;52.068;20.806;2023-11-21T14:14:53;1.20;99.90
35491;DHT22;21605;52.068;20.806;2023-11-21T14:17:20;1.20;99.90
35491;DHT22;21605;52.068;20.806;2023-11-21T14:19:49;1.10;99.90
35491;DHT22;21605;52.068;20.806;2023-11-21T14:22:16;1.20;99.90
35491;DHT22;21605;52.068;20.806;2023-11-21T14:24:42;1.20;99.90
35491;DHT22;21605;52.068;20.806;2023-11-21T14:27:17;1.10;99.90
35491;DHT22;21605;52.068;20.806;2023-11-21T14:29:42;1.10;99.90
35491;DHT22;21605;52.068;20.806;2023-11-21T14:32:18;1.10;99.90
35491;DHT22;21605;52.068;20.806;2023-11-21T14:34:45;1.10;99.90
35491;DHT22;21605;52.068;20.806;2023-11-21T14:37:15;1.10;99.90
35491;DHT22;21605;52.068;20.806;2023-11-21T14:39:40;1.00;99.90
35491;DHT22;21605;52.068;20.806;2023-11-21T14:42:19;1.00;99.90
35491;DHT22;21605;52.068;20.806;2023-11-21T14:44:50;1.00;99.90
35491;DHT22;21605;52.068;20.806;2023-11-21T14:47:20;1.00;99.90
35491;DHT22;21605;52.068;20.806;2023-11-21T14:49:50;1.00;99.90
35491;DHT22;21605;52.068;20.806;2023-11-21T14:52:22;1.10;99.90
35491;DHT22;21605;52.068;20.806;2023-11-21T14:55:00;1.10;99.90
35491;DHT22;21605;52.068;20.806;2023-11-21T14:57:46;1.00;99.90
35491;DHT22;21605;52.068;20.806;2023-11-21T15:00:19;1.00;99.90
35491;DHT22;21605;52.068;20.806;2023-11-21T15:03:00;1.20;99.90
35491;DHT22;21605;52.068;20.806;2023-11-21T15:05:27;1.00;99.90
35491;DHT22;21605;52.068;20.806;2023-11-21T15:07:54;1.00;99.90
35491;DHT22;21605;52.068;20.806;2023-11-21T15:10:22;0.90;99.90
35491;DHT22;21605;52.068;20.806;2023-11-21T15:12:57;1.00;99.90
35491;DHT22;21605;52.068;20.806;2023-11-21T15:15:23;1.00;99.90
35491;DHT22;21605;52.068;20.806;2023-11-21T15:17:48;1.00;99.90
35491;DHT22;21605;52.068;20.806;2023-11-21T15:20:19;1.00;99.90
35491;DHT22;21605;52.068;20.806;2023-11-21T15:22:46;1.00;99.90
35491;DHT22;21605;52.068;20.806;2023-11-21T15:25:21;1.00;99.90
35491;DHT22;21605;52.068;20.806;2023-11-21T15:27:47;1.00;99.90
35491;DHT22;21605;52.068;20.806;2023-11-21T15:30:20;0.90;99.90
35491;DHT22;21605;52.068;20.806;2023-11-21T15:32:50;1.00;99.90
35491;DHT22;21605;52.068;20.806;2023-11-21T15:35:16;0.90;99.90
35491;DHT22;21605;52.068;20.806;2023-11-21T15:37:42;0.90;99.90
35491;DHT22;21605;52.068;20.806;2023-11-21T15:40:09;0.90;99.90
35491;DHT22;21605;52.068;20.806;2023-11-21T15:42:35;0.90;99.90
35491;DHT22;21605;52.068;20.806;2023-11-21T15:45:05;0.90;99.90
35491;DHT22;21605;52.068;20.806;2023-11-21T15:47:32;0.90;99.90
35491;DHT22;21605;52.068;20.806;2023-11-21T15:49:58;0.80;99.90
35491;DHT22;21605;52.068;20.806;2023-11-21T15:52:24;0.80;99.90
35491;DHT22;21605;52.068;20.806;2023-11-21T15:54:50;0.90;99.90
35491;DHT22;21605;52.068;20.806;2023-11-21T15:57:21;0.80;99.90
35491;DHT22;21605;52.068;20.806;2023-11-21T15:59:47;0.90;99.90
35491;DHT22;21605;52.068;20.806;2023-11-21T16:02:22;0.80;99.90